Amsden, Ohio
Current Conditions -  °F | °C
As of 4:53 AM on Sunday 25 Jan 2015 (Local Time) from KFDY Reporting Station
Overcast Overcast  
Wind Chill: 36°   Ceiling: 3300
Heat Index: 36°   Visibility: 9mi
Dew Point: 31°   Wind: 0mph
Humidity: 82%   Direction: NA
Pressure: 29.7"   Gusts: NA
Location:  41.22°N, 83.33°W
Report Text: KFDY 250953Z AUTO 00000KT 9SM SCT015 BKN033 OVC110 02/M01 A2970 RMK AO2 SLP061 T00221006
Loading
Personal Weather Stations






























Interactive Weather Map New forecast layout! Learn more

10-Day Weather Forecast

Advertisements
Track Severe Weather on mobile